createdAt,value
2022-10-01T00:01:14.464Z,98341.75
2022-10-01T00:03:41.925Z,98302.16
2022-10-01T00:06:10.815Z,98320.47
2022-10-01T00:08:39.742Z,98355.94
2022-10-01T00:11:09.355Z,98352.81
2022-10-01T00:13:36.546Z,98348.28
2022-10-01T00:16:08.937Z,98335.84
2022-10-01T00:18:40.416Z,98345.81
2022-10-01T00:21:09.477Z,98327.72
2022-10-01T00:23:36.738Z,98318.66
2022-10-01T00:26:21.287Z,98366.00
2022-10-01T00:28:53.099Z,98356.50
2022-10-01T00:31:19.891Z,98346.28
2022-10-01T00:33:47.269Z,98354.25
2022-10-01T00:36:13.898Z,98356.66
2022-10-01T00:38:40.811Z,98369.25
2022-10-01T00:41:08.896Z,98323.09
2022-10-01T00:43:40.214Z,98383.78
2022-10-01T00:46:15.953Z,98356.91
2022-10-01T00:49:00.483Z,98371.66
2022-10-01T00:51:30.261Z,98374.38
2022-10-01T00:54:06.103Z,98367.94
2022-10-01T00:56:33.197Z,98377.47
2022-10-01T00:59:00.359Z,98388.88
2022-10-01T01:01:27.273Z,98381.91
2022-10-01T01:03:54.926Z,98374.88
2022-10-01T01:06:21.590Z,98400.34
2022-10-01T01:08:55.889Z,98395.44
2022-10-01T01:11:35.574Z,98388.56
2022-10-01T01:14:33.109Z,98398.56
2022-10-01T01:17:10.942Z,98381.06
2022-10-01T01:19:52.855Z,98400.94
2022-10-01T01:22:23.312Z,98391.75
2022-10-01T01:25:14.407Z,98367.97
2022-10-01T01:27:43.673Z,98406.88
2022-10-01T01:30:12.619Z,98411.19
2022-10-01T01:32:50.548Z,98377.59
2022-10-01T01:35:34.791Z,98385.34
2022-10-01T01:38:09.479Z,98416.53
2022-10-01T01:40:39.312Z,98385.94
2022-10-01T01:43:11.135Z,98396.53
2022-10-01T01:45:40.218Z,98380.31
2022-10-01T01:48:10.014Z,98356.75
2022-10-01T01:50:43.897Z,98442.72
2022-10-01T01:53:11.428Z,98426.16
2022-10-01T01:55:39.105Z,98430.91
2022-10-01T01:58:06.066Z,98439.25
2022-10-01T02:00:32.707Z,98426.44
2022-10-01T02:02:59.760Z,98445.09
2022-10-01T02:05:32.735Z,98438.06
2022-10-01T02:08:38.130Z,98452.78
2022-10-01T02:11:23.139Z,98448.25
2022-10-01T02:13:52.778Z,98450.50
2022-10-01T02:16:22.388Z,98459.16
2022-10-01T02:18:53.226Z,98455.53
2022-10-01T02:21:41.151Z,98454.91
2022-10-01T02:24:14.436Z,98472.69
2022-10-01T02:26:42.646Z,98472.72
2022-10-01T02:29:13.291Z,98448.97
2022-10-01T02:31:41.362Z,98475.97
2022-10-01T02:34:12.854Z,98474.34
2022-10-01T02:36:42.212Z,98459.00
2022-10-01T02:39:11.914Z,98484.97
2022-10-01T02:41:38.864Z,98485.88
2022-10-01T02:44:32.430Z,98493.00
2022-10-01T02:47:18.085Z,98496.00
2022-10-01T02:49:44.911Z,98476.94
2022-10-01T02:52:52.565Z,98481.81
2022-10-01T02:55:30.695Z,98487.94
2022-10-01T02:57:57.767Z,98464.16
2022-10-01T03:00:27.083Z,98500.31
2022-10-01T03:02:53.819Z,98449.03
2022-10-01T03:05:21.423Z,98496.66
2022-10-01T03:07:48.743Z,98503.81
2022-10-01T03:10:16.954Z,98502.84
2022-10-01T03:12:46.786Z,98497.69
2022-10-01T03:15:16.159Z,98490.34
2022-10-01T03:17:43.080Z,98500.19
2022-10-01T03:20:10.350Z,98487.09
2022-10-01T03:22:37.217Z,98518.28
2022-10-01T03:25:04.849Z,98513.66
2022-10-01T03:27:31.535Z,98488.06
2022-10-01T03:29:58.187Z,98486.63
2022-10-01T03:32:24.810Z,98516.94
2022-10-01T03:34:51.608Z,98541.44
2022-10-01T03:37:18.207Z,98526.72
2022-10-01T03:39:45.029Z,98520.66
2022-10-01T03:42:11.736Z,98521.28
2022-10-01T03:44:38.466Z,98511.44
2022-10-01T03:47:05.140Z,98524.88
2022-10-01T03:49:31.777Z,98544.63
2022-10-01T03:51:59.508Z,98548.53
2022-10-01T03:54:26.616Z,98549.25
2022-10-01T03:56:53.310Z,98574.44
2022-10-01T03:59:20.272Z,98562.41
2022-10-01T04:01:46.996Z,98552.69
2022-10-01T04:04:13.742Z,98567.13
2022-10-01T04:06:40.778Z,98570.47
2022-10-01T04:09:09.704Z,98572.13
2022-10-01T04:11:37.422Z,98575.75
2022-10-01T04:14:04.172Z,98557.78
2022-10-01T04:16:30.823Z,98568.34
2022-10-01T04:18:57.478Z,98575.94
2022-10-01T04:21:24.082Z,98597.38
2022-10-01T04:23:50.794Z,98569.72
2022-10-01T04:26:19.074Z,98585.06
2022-10-01T04:28:46.938Z,98592.06
2022-10-01T04:31:26.682Z,98580.97
2022-10-01T04:33:55.132Z,98589.03
2022-10-01T04:36:22.312Z,98592.78
2022-10-01T04:38:57.912Z,98571.16
2022-10-01T04:41:26.387Z,98593.75
2022-10-01T04:43:53.084Z,98598.34
2022-10-01T04:46:20.456Z,98604.28
2022-10-01T04:48:49.455Z,98609.59
2022-10-01T04:51:17.212Z,98601.13
2022-10-01T04:53:43.916Z,98612.84
2022-10-01T04:56:10.853Z,98606.69
2022-10-01T04:58:38.619Z,98629.41
2022-10-01T05:01:05.383Z,98610.81
2022-10-01T05:03:33.242Z,98626.69
2022-10-01T05:06:00.062Z,98613.59
2022-10-01T05:08:27.267Z,98620.19
2022-10-01T05:10:53.918Z,98632.31
2022-10-01T05:13:20.521Z,98628.75
2022-10-01T05:15:50.796Z,98631.19
2022-10-01T05:18:17.765Z,98612.47
2022-10-01T05:20:44.443Z,98627.66
2022-10-01T05:23:11.144Z,98633.88
2022-10-01T05:25:37.751Z,98631.38
2022-10-01T05:28:05.514Z,98624.88
2022-10-01T05:30:33.532Z,98640.78
2022-10-01T05:33:02.301Z,98656.41
2022-10-01T05:35:29.845Z,98662.97
2022-10-01T05:38:01.955Z,98652.53
2022-10-01T05:40:29.806Z,98668.47
2022-10-01T05:42:58.507Z,98616.88
2022-10-01T05:45:27.208Z,98657.69
2022-10-01T05:47:58.705Z,98664.69
2022-10-01T05:50:25.963Z,98672.75
2022-10-01T05:52:54.795Z,98677.66
2022-10-01T05:55:22.573Z,98686.88
2022-10-01T05:58:01.356Z,98681.84
2022-10-01T06:00:29.569Z,98682.78
2022-10-01T06:02:58.100Z,98688.41
2022-10-01T06:05:25.719Z,98675.69
2022-10-01T06:07:53.629Z,98695.22
2022-10-01T06:10:21.575Z,98688.41
2022-10-01T06:12:48.780Z,98688.94
2022-10-01T06:15:16.215Z,98694.91
2022-10-01T06:17:45.645Z,98705.97
2022-10-01T06:20:19.139Z,98708.59
2022-10-01T06:22:54.159Z,98710.19
2022-10-01T06:25:22.165Z,98706.94
2022-10-01T06:27:58.147Z,98711.94
2022-10-01T06:30:29.376Z,98673.72
2022-10-01T06:33:04.540Z,98719.88
2022-10-01T06:35:35.556Z,98715.34
2022-10-01T06:38:02.622Z,98700.44
2022-10-01T06:40:30.452Z,98654.91
2022-10-01T06:43:00.946Z,98660.19
2022-10-01T06:45:32.667Z,98673.38
2022-10-01T06:48:03.593Z,98720.13
2022-10-01T06:50:34.974Z,98686.53
2022-10-01T06:53:02.976Z,98744.75
2022-10-01T06:55:32.393Z,98715.88
2022-10-01T06:58:00.260Z,98733.34
2022-10-01T07:00:29.075Z,98747.41
2022-10-01T07:02:56.327Z,98733.47
2022-10-01T07:05:24.485Z,98758.16
2022-10-01T07:07:51.648Z,98699.75
2022-10-01T07:10:21.003Z,98772.19
2022-10-01T07:12:49.179Z,98763.59
2022-10-01T07:15:22.726Z,98772.75
2022-10-01T07:17:51.306Z,98746.69
2022-10-01T07:20:21.496Z,98776.44
2022-10-01T07:22:48.950Z,98745.31
2022-10-01T07:25:16.083Z,98756.41
2022-10-01T07:27:42.878Z,98783.66
2022-10-01T07:30:10.067Z,98735.47
2022-10-01T07:32:36.768Z,98791.50
2022-10-01T07:35:05.144Z,98746.25
2022-10-01T07:37:32.139Z,98774.75
2022-10-01T07:39:58.821Z,98760.94
2022-10-01T07:42:29.488Z,98737.88
2022-10-01T07:44:56.210Z,98765.00
2022-10-01T07:47:22.927Z,98802.78
2022-10-01T07:49:49.614Z,98753.69
2022-10-01T07:52:17.897Z,98776.72
2022-10-01T07:54:44.601Z,98781.94
2022-10-01T07:57:11.375Z,98748.47
2022-10-01T07:59:41.167Z,98787.63
2022-10-01T08:02:15.858Z,98819.88
2022-10-01T08:05:06.819Z,98735.38
2022-10-01T08:07:33.553Z,98711.50
2022-10-01T08:10:00.189Z,98755.75
2022-10-01T08:12:32.872Z,98805.41
2022-10-01T08:14:59.564Z,98766.84
2022-10-01T08:17:29.682Z,98813.03
2022-10-01T08:19:56.443Z,98818.63
2022-10-01T08:25:07.820Z,98822.94
2022-10-01T08:27:34.543Z,98798.22
2022-10-01T08:30:04.842Z,98791.16
2022-10-01T08:32:34.229Z,98824.84
2022-10-01T08:35:01.410Z,98796.19
2022-10-01T08:37:29.819Z,98847.00
2022-10-01T08:39:56.997Z,98827.97
2022-10-01T08:42:38.776Z,98841.56
2022-10-01T08:45:13.567Z,98845.19
2022-10-01T08:47:46.728Z,98831.25
2022-10-01T08:50:31.958Z,98822.06
2022-10-01T08:53:03.228Z,98801.16
2022-10-01T08:55:37.448Z,98823.31
2022-10-01T08:58:07.712Z,98806.88
2022-10-01T09:00:39.000Z,98826.94
2022-10-01T09:03:10.678Z,98862.25
2022-10-01T09:05:43.328Z,98871.47
2022-10-01T09:08:16.595Z,98866.41
2022-10-01T09:10:49.892Z,98849.34
2022-10-01T09:13:35.087Z,98860.72
2022-10-01T09:16:02.109Z,98863.69
2022-10-01T09:18:40.771Z,98876.63
2022-10-01T09:21:25.319Z,98871.63
2022-10-01T09:24:17.507Z,98848.81
2022-10-01T09:26:50.952Z,98859.09
2022-10-01T09:29:27.965Z,98849.84
2022-10-01T09:31:56.334Z,98876.91
2022-10-01T09:34:34.705Z,98887.28
2022-10-01T09:37:14.940Z,98855.81
2022-10-01T09:39:46.733Z,98887.16
2022-10-01T09:42:13.416Z,98868.75
2022-10-01T09:44:40.229Z,98873.22
2022-10-01T09:47:18.511Z,98894.22
2022-10-01T09:49:46.381Z,98853.50
2022-10-01T09:52:15.295Z,98915.81
2022-10-01T09:54:52.728Z,98866.78
2022-10-01T09:57:25.184Z,98915.84
2022-10-01T10:00:12.343Z,98922.75
2022-10-01T10:02:47.624Z,98927.69
2022-10-01T10:05:22.359Z,98903.13
2022-10-01T10:07:59.077Z,98866.56
2022-10-01T10:10:35.717Z,98902.50
2022-10-01T10:13:14.755Z,98880.41
2022-10-01T10:16:00.312Z,98930.28
2022-10-01T10:18:35.569Z,98945.03
2022-10-01T10:21:14.617Z,98876.53
2022-10-01T10:23:54.311Z,98950.19
2022-10-01T10:26:43.478Z,98901.34
2022-10-01T10:29:30.583Z,98955.66
2022-10-01T10:32:01.804Z,98920.94
2022-10-01T10:34:41.042Z,98953.41
2022-10-01T10:37:15.244Z,98897.19
2022-10-01T10:39:46.748Z,98866.28
2022-10-01T10:42:18.932Z,98902.94
2022-10-01T10:44:51.707Z,98921.91
2022-10-01T10:47:23.278Z,98948.50
2022-10-01T10:49:52.893Z,98955.28
2022-10-01T10:52:21.422Z,98946.09
2022-10-01T10:54:55.291Z,98928.00
2022-10-01T10:57:34.178Z,98933.19
2022-10-01T11:00:13.806Z,98945.47
2022-10-01T11:03:04.796Z,98960.00
2022-10-01T11:05:39.376Z,98922.03
2022-10-01T11:08:16.884Z,98893.66
2022-10-01T11:11:18.151Z,98964.22
2022-10-01T11:13:59.272Z,98967.69
2022-10-01T11:16:32.255Z,98966.03
2022-10-01T11:19:20.429Z,98926.50
2022-10-01T11:21:53.268Z,98970.50
2022-10-01T11:24:46.016Z,98974.25
2022-10-01T11:27:12.807Z,98981.06
2022-10-01T11:29:51.327Z,98991.78
2022-10-01T11:32:45.535Z,98987.00
2022-10-01T11:35:26.197Z,98989.66
2022-10-01T11:38:11.536Z,98964.91
2022-10-01T11:40:49.685Z,98958.19
2022-10-01T11:43:32.209Z,98980.03
2022-10-01T11:46:12.099Z,98973.69
2022-10-01T11:48:54.207Z,98974.78
2022-10-01T11:51:26.990Z,98967.63
2022-10-01T11:54:04.593Z,98999.75
2022-10-01T11:56:56.956Z,98992.28
2022-10-01T11:59:50.162Z,99029.56
2022-10-01T12:02:28.250Z,99022.97
2022-10-01T12:05:07.508Z,98991.28
2022-10-01T12:07:49.630Z,98989.06
2022-10-01T12:10:25.804Z,99020.47
2022-10-01T12:13:20.963Z,98997.53
2022-10-01T12:16:10.031Z,99019.84
2022-10-01T12:18:45.644Z,99043.00
2022-10-01T12:21:21.595Z,99017.75
2022-10-01T12:23:54.743Z,99061.38
2022-10-01T12:26:41.496Z,99054.97
2022-10-01T12:29:19.900Z,99020.06
2022-10-01T12:31:57.995Z,99027.19
2022-10-01T12:35:12.570Z,99052.84
2022-10-01T12:37:39.540Z,99057.84
2022-10-01T12:40:12.508Z,99065.09
2022-10-01T12:42:47.547Z,99026.34
2022-10-01T12:45:44.283Z,99065.31
2022-10-01T12:48:38.295Z,99062.59
2022-10-01T12:51:10.999Z,99067.19
2022-10-01T12:54:00.757Z,99063.63
2022-10-01T12:56:35.303Z,99067.34
2022-10-01T12:59:06.591Z,99092.22
2022-10-01T13:01:43.439Z,99090.59
2022-10-01T13:04:17.637Z,99095.28
2022-10-01T13:07:09.090Z,99096.38
2022-10-01T13:09:57.970Z,99091.16
2022-10-01T13:12:30.599Z,99112.81
2022-10-01T13:14:58.516Z,99101.84
2022-10-01T13:17:38.842Z,99080.38
2022-10-01T13:20:27.715Z,99108.91
2022-10-01T13:23:21.883Z,99080.09
2022-10-01T13:26:01.804Z,99102.94
2022-10-01T13:29:05.414Z,99105.44
2022-10-01T13:31:38.306Z,99105.44
2022-10-01T13:34:43.063Z,99102.63
2022-10-01T13:37:15.961Z,99082.97
2022-10-01T13:39:43.880Z,99116.47
2022-10-01T13:42:26.388Z,99112.28
2022-10-01T13:44:57.398Z,99111.53
2022-10-01T13:47:25.357Z,99124.13
2022-10-01T13:50:00.057Z,99136.84
2022-10-01T13:52:26.940Z,99133.97
2022-10-01T13:54:56.319Z,99130.47
2022-10-01T13:57:34.350Z,99136.38
2022-10-01T14:00:12.749Z,99109.72
2022-10-01T14:02:42.506Z,99143.97
2022-10-01T14:05:18.267Z,99135.16
2022-10-01T14:07:48.958Z,99127.34
2022-10-01T14:10:16.668Z,99158.66
2022-10-01T14:13:05.162Z,99164.69
2022-10-01T14:16:03.393Z,99160.94
2022-10-01T14:18:36.438Z,99182.00
2022-10-01T14:21:28.801Z,99173.09
2022-10-01T14:24:01.486Z,99166.66
2022-10-01T14:26:37.439Z,99165.97
2022-10-01T14:29:18.285Z,99171.69
2022-10-01T14:31:53.439Z,99172.38
2022-10-01T14:34:58.252Z,99174.88
2022-10-01T14:37:25.183Z,99163.19
2022-10-01T14:40:14.852Z,99168.47
2022-10-01T14:42:41.576Z,99163.72
2022-10-01T14:45:16.487Z,99176.81
2022-10-01T14:47:43.139Z,99175.31
2022-10-01T14:50:19.897Z,99165.69
2022-10-01T14:52:55.035Z,99183.38
2022-10-01T14:55:24.186Z,99182.72
2022-10-01T14:57:54.709Z,99136.50
2022-10-01T15:00:29.451Z,99156.94
2022-10-01T15:03:10.191Z,99202.75
2022-10-01T15:05:37.507Z,99190.38
2022-10-01T15:08:10.238Z,99208.19
2022-10-01T15:10:36.980Z,99193.00
2022-10-01T15:13:04.470Z,99194.41
2022-10-01T15:15:38.611Z,99168.47
2022-10-01T15:18:05.739Z,99120.25
2022-10-01T15:20:32.391Z,99198.31
2022-10-01T15:23:01.626Z,99207.16
2022-10-01T15:25:31.459Z,99195.19
2022-10-01T15:27:58.167Z,99167.00
2022-10-01T15:30:27.796Z,99219.03
2022-10-01T15:32:54.875Z,99213.81
2022-10-01T15:35:23.611Z,99232.66
2022-10-01T15:37:51.772Z,99213.94
2022-10-01T15:40:30.896Z,99233.97
2022-10-01T15:43:21.962Z,99238.56
2022-10-01T15:46:10.232Z,99242.84
2022-10-01T15:48:38.132Z,99231.88
2022-10-01T15:51:17.854Z,99232.66
2022-10-01T15:53:45.515Z,99221.34
2022-10-01T15:56:17.094Z,99249.53
2022-10-01T15:58:57.455Z,99246.50
2022-10-01T16:01:27.390Z,99241.88
2022-10-01T16:04:05.312Z,99239.28
2022-10-01T16:06:40.067Z,99257.22
2022-10-01T16:09:20.270Z,99261.84
2022-10-01T16:11:51.202Z,99265.47
2022-10-01T16:14:31.012Z,99247.88
2022-10-01T16:17:19.258Z,99272.13
2022-10-01T16:19:47.986Z,99261.25
2022-10-01T16:22:18.835Z,99266.56
2022-10-01T16:24:50.823Z,99263.19
2022-10-01T16:27:20.530Z,99281.84
2022-10-01T16:30:00.140Z,99278.03
2022-10-01T16:32:30.916Z,99281.81
2022-10-01T16:35:35.832Z,99298.00
2022-10-01T16:38:07.184Z,99307.00
2022-10-01T16:40:39.099Z,99301.09
2022-10-01T16:43:10.066Z,99293.53
2022-10-01T16:45:38.809Z,99292.84
2022-10-01T16:48:14.342Z,99312.94
2022-10-01T16:50:41.767Z,99268.41
2022-10-01T16:53:16.940Z,99295.84
2022-10-01T16:55:44.568Z,99268.63
2022-10-01T16:58:12.877Z,99305.03
2022-10-01T17:00:39.858Z,99287.69
2022-10-01T17:03:09.867Z,99316.41
2022-10-01T17:05:37.546Z,99303.91
2022-10-01T17:08:11.418Z,99323.69
2022-10-01T17:10:51.814Z,99370.59
2022-10-01T17:13:18.520Z,99319.66
2022-10-01T17:15:47.495Z,99333.56
2022-10-01T17:18:14.297Z,99353.53
2022-10-01T17:20:41.036Z,99308.88
2022-10-01T17:23:07.918Z,99323.19
2022-10-01T17:25:38.316Z,99382.22
2022-10-01T17:28:08.679Z,99373.53
2022-10-01T17:30:38.944Z,99376.53
2022-10-01T17:33:05.743Z,99346.97
2022-10-01T17:38:13.575Z,99399.22
2022-10-01T17:40:42.020Z,99418.50
2022-10-01T17:43:13.412Z,99420.28
2022-10-01T17:45:40.558Z,99402.56
2022-10-01T17:48:08.109Z,99413.97
2022-10-01T17:50:35.908Z,99448.00
2022-10-01T17:53:02.774Z,99382.53
2022-10-01T17:55:29.592Z,99373.41
2022-10-01T17:57:56.455Z,99455.53
2022-10-01T18:00:23.198Z,99456.38
2022-10-01T18:02:49.990Z,99452.53
2022-10-01T18:05:17.355Z,99407.88
2022-10-01T18:07:44.070Z,99442.88
2022-10-01T18:10:12.945Z,99429.78
2022-10-01T18:12:40.665Z,99478.22
2022-10-01T18:15:08.021Z,99452.88
2022-10-01T18:17:36.649Z,99414.38
2022-10-01T18:20:07.897Z,99456.38
2022-10-01T18:22:36.012Z,99431.44
2022-10-01T18:25:03.693Z,99438.94
2022-10-01T18:27:30.851Z,99462.03
2022-10-01T18:29:57.549Z,99487.59
2022-10-01T18:32:27.393Z,99520.94
2022-10-01T18:35:00.252Z,99494.94
2022-10-01T18:37:40.128Z,99532.25
2022-10-01T18:40:33.494Z,99522.50
2022-10-01T18:43:13.284Z,99488.66
2022-10-01T18:46:09.169Z,99545.94
2022-10-01T18:49:01.274Z,99532.06
2022-10-01T18:51:51.194Z,99543.84
2022-10-01T18:54:51.190Z,99550.50
2022-10-01T18:57:50.867Z,99561.69
2022-10-01T19:00:19.469Z,99571.50
2022-10-01T19:03:10.354Z,99571.78
2022-10-01T19:05:58.421Z,99578.00
2022-10-01T19:08:40.135Z,99577.06
2022-10-01T19:11:18.681Z,99569.81
2022-10-01T19:14:42.178Z,99573.81
2022-10-01T19:17:24.013Z,99587.28
2022-10-01T19:20:05.812Z,99602.13
2022-10-01T19:22:41.601Z,99600.97
2022-10-01T19:25:36.938Z,99610.59
2022-10-01T19:28:21.642Z,99615.88
2022-10-01T19:31:20.053Z,99616.41
2022-10-01T19:33:56.310Z,99596.78
2022-10-01T19:36:35.610Z,99594.41
2022-10-01T19:39:09.431Z,99577.63
2022-10-01T19:41:38.980Z,99633.94
2022-10-01T19:44:21.433Z,99630.84
2022-10-01T19:46:49.952Z,99632.28
2022-10-01T19:49:21.781Z,99616.28
2022-10-01T19:51:57.187Z,99632.59
2022-10-01T19:54:47.532Z,99580.75
2022-10-01T19:57:25.843Z,99644.41
2022-10-01T19:59:58.435Z,99640.75
2022-10-01T20:02:41.130Z,99662.41
2022-10-01T20:05:12.714Z,99655.66
2022-10-01T20:07:57.928Z,99659.59
2022-10-01T20:10:38.754Z,99644.06
2022-10-01T20:13:14.165Z,99664.94
2022-10-01T20:15:58.802Z,99675.63
2022-10-01T20:18:28.105Z,99682.56
2022-10-01T20:21:29.816Z,99684.81
2022-10-01T20:24:01.796Z,99681.38
2022-10-01T20:26:40.914Z,99681.44
2022-10-01T20:29:32.601Z,99677.22
2022-10-01T20:32:15.015Z,99681.09
2022-10-01T20:34:48.921Z,99700.28
2022-10-01T20:37:40.549Z,99707.78
2022-10-01T20:40:49.828Z,99689.59
2022-10-01T20:44:00.004Z,99711.56
2022-10-01T20:46:39.109Z,99700.28
2022-10-01T20:49:15.400Z,99697.00
2022-10-01T20:51:59.186Z,99690.75
2022-10-01T20:54:33.418Z,99707.06
2022-10-01T20:57:16.157Z,99717.47
2022-10-01T20:59:46.250Z,99702.91
2022-10-01T21:02:44.147Z,99723.06
2022-10-01T21:05:41.411Z,99725.38
2022-10-01T21:08:21.025Z,99750.03
2022-10-01T21:11:04.015Z,99734.94
2022-10-01T21:13:30.565Z,99751.19
2022-10-01T21:16:19.082Z,99754.44
2022-10-01T21:19:06.598Z,99753.66
2022-10-01T21:21:39.490Z,99756.13
2022-10-01T21:24:22.712Z,99744.88
2022-10-01T21:27:01.563Z,99756.13
2022-10-01T21:29:49.408Z,99766.81
2022-10-01T21:32:33.491Z,99754.69
2022-10-01T21:35:36.468Z,99775.50
2022-10-01T21:38:22.673Z,99775.72
2022-10-01T21:41:13.798Z,99783.28
2022-10-01T21:43:46.082Z,99774.47
2022-10-01T21:46:21.979Z,99774.13
2022-10-01T21:49:17.639Z,99759.28
2022-10-01T21:51:51.206Z,99781.13
2022-10-01T21:54:30.096Z,99785.22
2022-10-01T21:57:10.422Z,99778.22
2022-10-01T21:59:42.880Z,99792.16
2022-10-01T22:02:37.505Z,99786.75
2022-10-01T22:05:23.545Z,99794.16
2022-10-01T22:08:38.423Z,99801.88
2022-10-01T22:11:14.878Z,99774.56
2022-10-01T22:13:52.725Z,99791.25
2022-10-01T22:16:22.115Z,99807.47
2022-10-01T22:18:57.453Z,99809.31
2022-10-01T22:21:31.402Z,99807.97
2022-10-01T22:24:20.824Z,99786.97
2022-10-01T22:27:14.092Z,99805.38
2022-10-01T22:29:44.823Z,99821.47
2022-10-01T22:32:16.557Z,99807.03
2022-10-01T22:34:49.222Z,99839.66
2022-10-01T22:37:25.834Z,99840.72
2022-10-01T22:40:03.707Z,99838.28
2022-10-01T22:42:38.930Z,99828.22
2022-10-01T22:45:17.771Z,99846.53
2022-10-01T22:47:56.594Z,99849.84
2022-10-01T22:50:37.890Z,99838.03
2022-10-01T22:53:26.706Z,99857.66
2022-10-01T22:55:56.004Z,99842.53
2022-10-01T22:58:28.757Z,99876.25
2022-10-01T23:01:33.470Z,99875.00
2022-10-01T23:04:47.782Z,99851.88
2022-10-01T23:07:23.274Z,99872.38
2022-10-01T23:10:23.695Z,99870.44
2022-10-01T23:13:10.260Z,99873.22
2022-10-01T23:15:56.900Z,99850.16
2022-10-01T23:18:37.266Z,99881.69
2022-10-01T23:21:25.748Z,99842.63
2022-10-01T23:24:16.224Z,99854.72
2022-10-01T23:27:21.087Z,99865.00
2022-10-01T23:29:58.682Z,99916.97
2022-10-01T23:32:44.000Z,99915.09
2022-10-01T23:35:15.511Z,99924.84
2022-10-01T23:38:12.351Z,99923.13
2022-10-01T23:40:42.265Z,99918.03
2022-10-01T23:43:22.475Z,99934.03
2022-10-01T23:46:02.541Z,99939.75
2022-10-01T23:49:14.541Z,99950.44
2022-10-01T23:52:13.473Z,99960.38
2022-10-01T23:54:56.695Z,99934.00
2022-10-01T23:57:31.423Z,99941.81
2022-10-01T23:59:58.193Z,99964.81
